Humidity-temperature Sensor

Selected Measurement Type: Air Temperature

 
Air Temperature [°C]     6 entries per hour
Showing data from 8/2/2018 (00:00:00 Z) to 7/26/2018 (00:01:00 Z)
Previous Next [ Day | 3-Days | 7-Days ]
First Last
Prev [ Day | 3-Days | 7-Days ] Next
First Last

Start Time:     :
End Time:     :     
Time (in GMT) :00 :50 :40 :30 :20 :10
Previous Next [ Day | 3-Days | 7-Days ]
First Last
Prev [ Day | 3-Days | 7-Days ] Next
First Last


123 => good data
MM => data is determined as missing
-- => data not received/configured
Back to Top Back to Top
8/2/2018 00:00 to 23:10 28.07 28.15 28.09 28.08 28.22 28.04
8/1/2018 23:00 to 22:10 27.99 27.96 27.90 27.86 27.89 27.86
8/1/2018 22:00 to 21:10 27.81 27.69 27.59 27.51 27.21 27.25
8/1/2018 21:00 to 20:10 27.23 27.09 27.03 26.80 26.70 26.59
8/1/2018 20:00 to 19:10 26.67 26.54 26.45 26.41 26.43 26.32
8/1/2018 19:00 to 18:10 26.19 25.96 25.93 25.42 25.63 26.93
8/1/2018 18:00 to 17:10 26.75 26.39 26.49 26.39 26.59 26.83
8/1/2018 17:00 to 16:10 26.99 26.97 26.96 27.23 27.58 26.81
8/1/2018 16:00 to 15:10 26.44 27.37 27.49 27.51 27.41 27.38
8/1/2018 15:00 to 14:10 27.47 27.48 27.46 27.43 27.43 27.38
8/1/2018 14:00 to 13:10 27.39 27.41 27.42 27.35 27.32 27.33
8/1/2018 13:00 to 12:10 27.32 27.36 27.36 27.32 27.45 27.42
8/1/2018 12:00 to 11:10 27.48 27.61 27.65 27.74 27.62 27.58
8/1/2018 11:00 to 10:10 27.50 27.56 27.76 27.72 27.61 27.46
8/1/2018 10:00 to 9:10 27.29 27.25 27.18 27.28 27.15 27.03
8/1/2018 09:00 to 8:10 27.07 26.98 26.84 27.11 26.88 26.65
8/1/2018 08:00 to 7:10 26.50 26.38 26.05 25.97 26.15 25.99
8/1/2018 07:00 to 6:10 25.75 25.87 25.67 25.64 25.59 25.53
8/1/2018 06:00 to 5:10 26.17 26.90 28.30 28.25 28.54 28.49
8/1/2018 05:00 to 4:10 28.44 28.51 28.68 28.79 28.60 28.35
8/1/2018 04:00 to 3:10 28.27 28.08 27.98 28.05 28.22 29.13
8/1/2018 03:00 to 2:10 29.17 29.24 29.34 29.03 29.09 29.05
8/1/2018 02:00 to 1:10 29.03 28.83 28.75 28.93 28.84 28.84
8/1/2018 01:00 to 0:10 28.82 28.71 28.74 28.69 28.90 28.71
8/1/2018 00:00 to 23:10 28.59 28.67 28.56 28.54 28.45 28.41
7/31/2018 23:00 to 22:10 28.30 28.45 28.50 28.49 28.35 28.37
7/31/2018 22:00 to 21:10 28.25 28.29 28.23 28.16 28.27 28.26
7/31/2018 21:00 to 20:10 28.23 28.19 28.20 28.22 28.25 28.25
7/31/2018 20:00 to 19:10 28.21 28.15 28.28 28.24 28.08 28.01
7/31/2018 19:00 to 18:10 27.98 27.99 28.02 28.06 27.94 27.96
7/31/2018 18:00 to 17:10 27.89 27.89 27.80 27.72 27.67 27.65
7/31/2018 17:00 to 16:10 27.60 27.60 27.67 27.63 27.55 27.48
7/31/2018 16:00 to 15:10 27.57 27.55 27.55 27.64 27.60 27.57
7/31/2018 15:00 to 14:10 27.60 27.58 27.66 27.51 27.47 27.50
7/31/2018 14:00 to 13:10 27.53 27.59 27.49 27.60 27.70 27.68
7/31/2018 13:00 to 12:10 27.76 27.63 27.72 27.77 27.72 27.78
7/31/2018 12:00 to 11:10 27.82 27.78 27.65 27.73 27.70 27.60
7/31/2018 11:00 to 10:10 27.81 27.80 27.98 27.87 27.76 27.79
7/31/2018 10:00 to 9:10 27.49 27.45 27.51 27.45 27.35 27.40
7/31/2018 09:00 to 8:10 27.42 27.54 27.49 27.56 27.46 27.42
7/31/2018 08:00 to 7:10 27.42 27.43 27.37 27.44 27.43 27.14
7/31/2018 07:00 to 6:10 27.00 26.78 26.71 26.56 26.62 26.47
7/31/2018 06:00 to 5:10 26.93 27.06 26.92 27.34 27.87 27.74
7/31/2018 05:00 to 4:10 27.72 27.70 27.60 27.71 27.66 27.61
7/31/2018 04:00 to 3:10 27.77 27.98 27.96 28.25 28.21 28.37
7/31/2018 03:00 to 2:10 28.13 28.12 28.15 27.94 27.85 27.72
7/31/2018 02:00 to 1:10 27.95 27.91 28.09 28.15 27.95 27.89
7/31/2018 01:00 to 0:10 27.84 27.42 27.34 26.82 26.48 26.22
7/31/2018 00:00 to 23:10 26.03 26.26 26.21 26.45 26.95 27.07
7/30/2018 23:00 to 22:10 27.08 27.62 27.93 27.89 28.46 28.43
7/30/2018 22:00 to 21:10 28.76 28.86 29.18 28.89 28.89 28.91
7/30/2018 21:00 to 20:10 28.87 29.05 28.72 28.40 28.46 28.45
7/30/2018 20:00 to 19:10 28.59 28.25 28.11 27.80 28.49 28.44
7/30/2018 19:00 to 18:10 28.51 28.59 28.58 28.59 28.37 28.16
7/30/2018 18:00 to 17:10 28.10 27.81 27.54 27.28 27.01 27.41
7/30/2018 17:00 to 16:10 28.05 27.95 28.03 28.14 28.23 28.37
7/30/2018 16:00 to 15:10 28.43 28.20 28.19 28.43 28.31 28.50
7/30/2018 15:00 to 14:10 28.51 28.55 28.67 28.47 28.60 28.74
7/30/2018 14:00 to 13:10 27.71 27.54 28.55 28.55 28.39 28.47
7/30/2018 13:00 to 12:10 28.53 28.70 28.58 28.62 28.69 28.70
7/30/2018 12:00 to 11:10 28.88 28.81 28.92 28.83 28.84 28.68
7/30/2018 11:00 to 10:10 28.78 28.79 28.79 28.93 28.88 28.88
7/30/2018 10:00 to 9:10 28.78 28.77 28.74 28.78 28.81 28.75
7/30/2018 09:00 to 8:10 28.76 28.76 28.81 28.70 28.66 28.69
7/30/2018 08:00 to 7:10 28.58 28.64 28.73 28.69 28.56 28.49
7/30/2018 07:00 to 6:10 28.60 28.65 28.64 28.68 28.67 28.67
7/30/2018 06:00 to 5:10 28.60 28.69 28.64 28.70 28.84 28.71
7/30/2018 05:00 to 4:10 28.81 28.82 28.85 28.93 29.02 28.82
7/30/2018 04:00 to 3:10 28.84 29.06 29.16 29.21 28.98 28.95
7/30/2018 03:00 to 2:10 29.01 28.94 28.94 29.00 28.81 28.88
7/30/2018 02:00 to 1:10 28.84 28.82 29.03 28.76 28.84 29.01
7/30/2018 01:00 to 0:10 28.89 28.78 28.70 28.92 28.69 28.79
7/30/2018 00:00 to 23:10 28.66 28.74 28.84 28.51 28.63 28.65
7/29/2018 23:00 to 22:10 28.64 28.70 28.69 28.51 28.58 28.52
7/29/2018 22:00 to 21:10 28.42 28.34 28.31 28.15 28.40 28.39
7/29/2018 21:00 to 20:10 28.16 28.25 28.30 28.45 28.64 28.66
7/29/2018 20:00 to 19:10 28.55 28.46 28.47 28.46 28.39 28.37
7/29/2018 19:00 to 18:10 28.35 28.37 28.39 28.34 28.27 28.30
7/29/2018 18:00 to 17:10 28.33 28.29 28.28 28.11 28.13 28.22
7/29/2018 17:00 to 16:10 28.11 28.19 28.03 28.11 28.08 28.07
7/29/2018 16:00 to 15:10 -- -- -- -- -- --
7/29/2018 15:00 to 14:10 28.07 28.10 28.01 28.04 28.05 28.09
7/29/2018 14:00 to 13:10 28.05 28.09 28.15 28.23 28.34 28.33
7/29/2018 13:00 to 12:10 28.20 28.16 28.30 28.28 28.26 28.08
7/29/2018 12:00 to 11:10 28.06 27.92 27.83 27.76 28.01 28.22
7/29/2018 11:00 to 10:10 28.40 28.31 28.40 28.42 28.45 28.47
7/29/2018 10:00 to 9:10 28.41 28.36 28.43 28.38 28.49 28.49
7/29/2018 09:00 to 8:10 28.50 28.40 28.43 28.42 28.48 28.50
7/29/2018 08:00 to 7:10 28.47 28.38 28.42 28.42 28.52 28.50
7/29/2018 07:00 to 6:10 28.64 28.50 28.18 28.34 28.31 28.28
7/29/2018 06:00 to 5:10 28.30 28.20 28.22 28.05 28.08 28.06
7/29/2018 05:00 to 4:10 28.11 27.97 27.94 28.09 28.49 28.46
7/29/2018 04:00 to 3:10 28.59 28.56 28.66 28.56 28.61 28.64
7/29/2018 03:00 to 2:10 28.68 28.65 28.60 28.57 28.59 28.41
7/29/2018 02:00 to 1:10 28.44 28.36 28.41 28.40 28.37 28.47
7/29/2018 01:00 to 0:10 28.48 28.45 28.35 28.41 28.43 28.44
7/29/2018 00:00 to 23:10 28.46 28.26 28.34 28.34 28.34 28.22
7/28/2018 23:00 to 22:10 28.34 28.23 28.17 28.13 28.14 28.08
7/28/2018 22:00 to 21:10 28.03 27.93 27.93 27.92 27.79 27.64
7/28/2018 21:00 to 20:10 27.61 27.67 27.60 27.58 27.49 27.54
7/28/2018 20:00 to 19:10 27.35 27.36 27.41 27.35 27.32 27.28
7/28/2018 19:00 to 18:10 27.25 27.17 27.22 27.20 27.15 27.14
7/28/2018 18:00 to 17:10 27.06 27.08 26.96 26.94 26.78 26.90
7/28/2018 17:00 to 16:10 26.83 26.79 26.73 26.66 26.63 26.39
7/28/2018 16:00 to 15:10 26.78 26.51 26.44 26.34 26.31 26.33
7/28/2018 15:00 to 14:10 26.28 26.25 26.27 26.12 26.00 25.93
7/28/2018 14:00 to 13:10 25.95 25.91 25.80 25.94 25.93 25.90
7/28/2018 13:00 to 12:10 26.20 26.03 26.26 26.25 26.19 26.46
7/28/2018 12:00 to 11:10 26.19 26.05 26.07 26.15 25.91 26.18
7/28/2018 11:00 to 10:10 26.03 25.90 25.91 26.07 26.04 25.71
7/28/2018 10:00 to 9:10 25.66 25.68 25.70 25.68 25.73 25.59
7/28/2018 09:00 to 8:10 25.90 25.70 25.48 25.46 25.42 25.67
7/28/2018 08:00 to 7:10 25.66 25.69 25.78 25.90 25.74 25.83
7/28/2018 07:00 to 6:10 25.62 25.77 25.74 25.99 26.14 26.68
7/28/2018 06:00 to 5:10 27.09 27.09 26.74 26.66 26.14 26.42
7/28/2018 05:00 to 4:10 26.36 26.60 26.45 26.72 26.79 26.95
7/28/2018 04:00 to 3:10 26.34 26.30 26.59 26.64 26.30 26.89
7/28/2018 03:00 to 2:10 28.26 28.47 28.49 28.61 28.67 28.62
7/28/2018 02:00 to 1:10 28.50 28.43 28.65 28.56 28.61 28.44
7/28/2018 01:00 to 0:10 28.67 28.80 28.86 29.01 28.90 28.90
7/28/2018 00:00 to 23:10 28.71 28.77 28.74 28.60 28.55 28.67
7/27/2018 23:00 to 22:10 28.54 28.42 28.54 28.29 27.84 27.22
7/27/2018 22:00 to 21:10 26.96 26.88 28.26 27.92 27.87 27.68
7/27/2018 21:00 to 20:10 27.59 27.56 27.47 27.11 26.96 26.90
7/27/2018 20:00 to 19:10 26.73 27.51 28.15 28.31 28.35 28.37
7/27/2018 19:00 to 18:10 28.40 28.05 28.00 27.94 27.98 27.94
7/27/2018 18:00 to 17:10 27.80 27.80 27.53 27.61 27.22 26.69
7/27/2018 17:00 to 16:10 27.11 27.53 27.47 27.41 27.44 27.39
7/27/2018 16:00 to 15:10 27.36 27.25 27.24 27.13 27.19 26.90
7/27/2018 15:00 to 14:10 26.80 26.71 26.54 26.38 26.33 26.10
7/27/2018 14:00 to 13:10 27.43 27.54 27.60 27.45 27.47 27.35
7/27/2018 13:00 to 12:10 27.33 27.15 27.18 26.94 27.07 27.30
7/27/2018 12:00 to 11:10 27.36 27.39 27.31 27.27 27.32 27.17
7/27/2018 11:00 to 10:10 27.12 26.73 26.79 26.59 26.38 26.10
7/27/2018 10:00 to 9:10 26.25 26.70 27.10 27.80 28.04 27.71
7/27/2018 09:00 to 8:10 27.97 27.90 27.73 27.79 28.08 27.67
7/27/2018 08:00 to 7:10 27.88 28.00 28.45 28.67 28.69 28.75
7/27/2018 07:00 to 6:10 28.75 28.59 28.52 28.53 28.51 28.53
7/27/2018 06:00 to 5:10 28.65 28.63 28.58 28.69 28.86 28.89
7/27/2018 05:00 to 4:10 28.87 28.95 28.93 28.84 28.90 28.97
7/27/2018 04:00 to 3:10 29.04 29.13 29.11 28.96 28.88 28.93
7/27/2018 03:00 to 2:10 28.87 28.89 28.79 28.83 28.69 28.64
7/27/2018 02:00 to 1:10 28.80 28.73 28.91 29.03 28.92 28.71
7/27/2018 01:00 to 0:10 28.78 28.63 28.66 28.72 28.90 28.79
7/27/2018 00:00 to 23:10 28.76 28.81 28.79 28.59 28.56 28.62
7/26/2018 23:00 to 22:10 28.70 28.58 28.55 28.62 28.53 28.53
7/26/2018 22:00 to 21:10 28.44 28.57 28.61 28.50 28.48 28.39
7/26/2018 21:00 to 20:10 28.48 28.67 28.46 28.55 28.47 28.36
7/26/2018 20:00 to 19:10 28.31 28.48 28.50 28.46 28.53 28.29
7/26/2018 19:00 to 18:10 28.48 28.42 28.45 28.39 28.48 28.35
7/26/2018 18:00 to 17:10 28.23 28.25 28.03 27.93 27.99 27.95
7/26/2018 17:00 to 16:10 28.02 28.12 28.02 28.10 28.12 28.01
7/26/2018 16:00 to 15:10 27.97 27.98 27.84 27.94 28.04 27.96
7/26/2018 15:00 to 14:10 28.00 28.01 28.07 27.90 27.95 28.11
7/26/2018 14:00 to 13:10 28.04 28.07 28.00 28.20 28.21 28.21
7/26/2018 13:00 to 12:10 28.30 28.27 28.31 28.19 28.24 28.18
7/26/2018 12:00 to 11:10 28.19 28.21 28.28 28.38 28.28 28.30
7/26/2018 11:00 to 10:10 28.32 28.24 28.47 28.49 28.38 28.41
7/26/2018 10:00 to 9:10 28.44 28.49 28.53 28.55 28.52 28.46
7/26/2018 09:00 to 8:10 28.49 28.49 28.54 28.45 28.62 28.68
7/26/2018 08:00 to 7:10 28.67 28.59 28.56 28.48 28.58 28.55
7/26/2018 07:00 to 6:10 28.48 28.64 28.58 28.69 28.70 28.74
7/26/2018 06:00 to 5:10 28.62 28.62 28.74 28.65 28.85 28.85
7/26/2018 05:00 to 4:10 29.34 29.10 29.44 29.91 29.90 30.00
7/26/2018 04:00 to 3:10 30.08 29.79 30.07 29.70 29.55 29.16
7/26/2018 03:00 to 2:10 29.16 29.45 29.40 29.19 29.41 29.22
7/26/2018 02:00 to 1:10 29.11 29.15 28.99 29.09 28.90 29.10
7/26/2018 01:00 to 0:10 29.12 28.92 28.99 28.96 28.66 28.83